createdAt,value
2018-03-14T18:11:54.263Z,2.00
2018-03-14T18:14:22.446Z,1.90
2018-03-14T18:16:50.575Z,1.87
2018-03-14T18:19:18.750Z,2.00
2018-03-14T18:21:47.166Z,2.30
2018-03-14T18:24:15.586Z,2.07
2018-03-14T18:26:43.729Z,2.40
2018-03-14T18:29:11.870Z,2.27
2018-03-14T18:31:40.038Z,2.30
2018-03-14T18:34:08.230Z,2.10
2018-03-14T18:36:36.395Z,1.93
2018-03-14T19:36:48.562Z,11.23
2018-03-14T19:39:16.678Z,10.40
2018-03-14T19:41:44.762Z,10.70
2018-03-14T19:44:12.903Z,11.07
2018-03-14T19:46:40.976Z,13.62
2018-03-14T19:49:09.782Z,13.55
2018-03-14T19:51:39.105Z,14.10
2018-03-14T19:54:07.226Z,14.77
2018-03-14T19:56:35.370Z,15.93
2018-03-14T19:59:03.682Z,16.45
2018-03-14T20:01:31.794Z,17.05
2018-03-14T20:03:59.914Z,17.92
2018-03-14T20:06:28.142Z,15.98
2018-03-14T20:08:56.464Z,17.45
2018-03-14T20:11:25.384Z,17.58
2018-03-14T20:13:53.476Z,18.77
2018-03-14T20:16:21.620Z,17.73
2018-03-14T20:18:49.748Z,19.30
2018-03-14T20:21:17.858Z,19.65
2018-03-14T20:23:46.518Z,17.87
2018-03-14T20:26:14.849Z,19.52
2018-03-14T20:28:42.928Z,18.87
2018-03-14T20:31:16.007Z,18.52
2018-03-14T20:33:44.399Z,19.85
2018-03-14T20:36:12.589Z,19.08
2018-03-14T20:38:40.739Z,21.00
2018-03-14T20:41:08.952Z,20.35
2018-03-14T20:43:37.044Z,18.48
2018-03-14T20:46:05.294Z,20.98
2018-03-14T20:48:33.394Z,19.67
2018-03-14T20:51:01.814Z,19.65
2018-03-14T20:53:29.912Z,18.90
2018-03-14T20:55:58.084Z,18.12
2018-03-14T20:58:26.207Z,18.65
2018-03-14T21:00:54.402Z,19.08
2018-03-14T21:03:22.522Z,19.00
2018-03-14T21:05:50.627Z,19.42
2018-03-14T21:08:18.718Z,18.33
2018-03-14T21:10:46.857Z,18.85
2018-03-14T21:13:14.950Z,16.90
2018-03-14T21:15:43.050Z,17.75
2018-03-14T21:18:11.234Z,18.15
2018-03-14T21:20:39.372Z,18.30
2018-03-14T21:23:08.284Z,18.15
2018-03-14T21:25:36.454Z,17.30
2018-03-14T21:28:04.547Z,17.20
2018-03-14T21:30:33.576Z,17.05
2018-03-14T21:33:02.322Z,16.37
2018-03-14T21:35:30.477Z,16.17
2018-03-14T21:37:58.564Z,16.52
2018-03-14T21:40:26.686Z,15.60
2018-03-14T21:42:54.780Z,15.00
2018-03-14T21:45:23.385Z,15.80
2018-03-14T21:47:51.460Z,16.08
2018-03-14T21:50:19.555Z,14.45
2018-03-14T21:52:47.655Z,15.13
2018-03-14T21:55:15.890Z,16.02
2018-03-14T21:57:44.035Z,15.80
2018-03-14T22:00:12.143Z,16.83
2018-03-14T22:02:40.236Z,14.77
2018-03-14T22:05:08.344Z,16.02
2018-03-14T22:07:36.481Z,16.50
2018-03-14T22:10:04.861Z,15.55
2018-03-14T22:12:33.033Z,16.87
2018-03-14T22:15:01.159Z,16.73
2018-03-14T22:17:29.295Z,16.77
2018-03-14T22:19:57.394Z,16.10
2018-03-14T22:22:25.528Z,17.55
2018-03-14T22:24:53.637Z,17.62
2018-03-14T22:27:21.746Z,17.75
2018-03-14T22:29:49.859Z,17.75
2018-03-14T22:32:18.643Z,19.05
2018-03-14T22:34:46.759Z,18.60
2018-03-14T22:37:14.860Z,18.42
2018-03-14T22:39:42.943Z,19.02
2018-03-14T22:42:11.070Z,19.58
2018-03-14T22:44:39.159Z,20.17
2018-03-14T22:47:07.283Z,19.65
2018-03-14T22:49:35.382Z,20.27
2018-03-14T22:52:03.498Z,20.02
2018-03-14T22:54:31.597Z,19.90
2018-03-14T22:56:59.731Z,20.92
2018-03-14T22:59:27.808Z,21.30
2018-03-14T23:01:56.532Z,20.83
2018-03-14T23:04:24.652Z,21.05
2018-03-14T23:06:53.249Z,20.42
2018-03-14T23:09:21.347Z,21.65
2018-03-14T23:11:49.479Z,21.35
2018-03-14T23:14:17.594Z,20.67
2018-03-14T23:16:45.702Z,21.65
2018-03-14T23:19:13.823Z,21.40
2018-03-14T23:21:41.954Z,20.88
2018-03-14T23:24:10.093Z,21.35
2018-03-14T23:26:38.523Z,20.85
2018-03-14T23:29:06.694Z,21.40
2018-03-14T23:31:34.799Z,20.50
2018-03-14T23:34:02.922Z,22.75
2018-03-14T23:36:31.035Z,23.00
2018-03-14T23:38:59.206Z,22.17
2018-03-14T23:41:27.393Z,22.27
2018-03-14T23:43:55.730Z,22.67
2018-03-14T23:46:23.807Z,22.77
2018-03-14T23:48:51.937Z,22.58
2018-03-14T23:51:20.041Z,22.00
2018-03-14T23:53:48.290Z,21.42
2018-03-14T23:56:16.596Z,22.02
2018-03-14T23:58:44.697Z,23.20
